createdAt,value
2018-04-27T00:01:39.733Z,96.70
2018-04-27T00:04:08.433Z,96.80
2018-04-27T00:06:37.994Z,96.80
2018-04-27T00:09:05.915Z,96.90
2018-04-27T00:11:33.914Z,97.00
2018-04-27T00:14:02.453Z,96.90
2018-04-27T00:16:30.293Z,96.90
2018-04-27T00:18:58.218Z,96.80
2018-04-27T00:21:26.817Z,96.70
2018-04-27T00:23:54.737Z,96.70
2018-04-27T00:26:22.616Z,96.60
2018-04-27T00:28:50.856Z,96.60
2018-04-27T00:31:19.576Z,97.00
2018-04-27T00:33:47.496Z,96.80
2018-04-27T00:36:15.576Z,96.70
2018-04-27T00:38:43.436Z,96.70
2018-04-27T00:41:11.338Z,96.70
2018-04-27T00:43:39.296Z,96.70
2018-04-27T00:46:07.197Z,96.10
2018-04-27T00:48:36.576Z,96.20
2018-04-27T00:51:05.493Z,96.30
2018-04-27T00:53:33.615Z,96.40
2018-04-27T00:56:01.615Z,96.40
2018-04-27T00:58:29.633Z,96.40
2018-04-27T01:00:57.514Z,96.20
2018-04-27T01:03:25.374Z,96.20
2018-04-27T01:05:53.477Z,96.30
2018-04-27T01:08:21.255Z,96.50
2018-04-27T01:10:49.814Z,96.90
2018-04-27T01:13:17.975Z,96.50
2018-04-27T01:15:45.854Z,96.60
2018-04-27T01:18:13.755Z,96.60
2018-04-27T01:20:41.815Z,96.70
2018-04-27T01:23:10.015Z,96.70
2018-04-27T01:25:37.914Z,96.70
2018-04-27T01:28:06.294Z,96.60
2018-04-27T01:30:34.114Z,96.50
2018-04-27T01:33:02.254Z,96.40
2018-04-27T01:35:30.674Z,96.30
2018-04-27T01:37:58.513Z,96.30
2018-04-27T01:40:26.393Z,96.40
2018-04-27T01:42:54.553Z,96.40
2018-04-27T01:45:23.413Z,96.20
2018-04-27T01:50:23.555Z,96.10
2018-04-27T01:52:51.676Z,96.10
2018-04-27T01:55:19.556Z,96.20
2018-04-27T01:57:48.056Z,96.10
2018-04-27T02:00:15.699Z,96.50
2018-04-27T02:02:44.055Z,96.50
2018-04-27T02:05:12.155Z,96.80
2018-04-27T02:07:40.055Z,96.80
2018-04-27T02:10:08.015Z,96.60
2018-04-27T02:12:36.015Z,96.50
2018-04-27T02:15:04.155Z,96.60
2018-04-27T02:17:32.515Z,96.70
2018-04-27T02:20:00.476Z,96.60
2018-04-27T02:22:29.616Z,96.50
2018-04-27T02:24:58.159Z,96.40
2018-04-27T02:27:26.295Z,96.30
2018-04-27T02:29:55.675Z,96.20
2018-04-27T02:32:25.809Z,96.30
2018-04-27T02:34:54.235Z,96.20
2018-04-27T02:37:22.675Z,96.10
2018-04-27T02:39:50.557Z,96.20
2018-04-27T02:42:18.915Z,96.10
2018-04-27T02:44:47.375Z,96.10
2018-04-27T02:47:15.554Z,96.20
2018-04-27T02:49:43.534Z,96.20
2018-04-27T02:52:11.355Z,96.10
2018-04-27T02:54:39.261Z,96.20
2018-04-27T02:57:07.415Z,96.10
2018-04-27T02:59:35.255Z,96.10
2018-04-27T03:02:03.436Z,96.10
2018-04-27T03:04:31.479Z,96.10
2018-04-27T03:06:59.738Z,96.10
2018-04-27T03:09:27.576Z,95.90
2018-04-27T03:11:55.497Z,95.90
2018-04-27T03:14:23.336Z,96.00
2018-04-27T03:16:51.156Z,96.10
2018-04-27T03:19:20.336Z,96.60
2018-04-27T03:21:48.956Z,96.30
2018-04-27T03:24:16.736Z,96.30
2018-04-27T03:26:44.777Z,96.20
2018-04-27T03:29:12.557Z,96.20
2018-04-27T03:31:40.398Z,96.10
2018-04-27T03:34:09.317Z,96.10
2018-04-27T03:36:37.116Z,96.00
2018-04-27T03:39:04.917Z,96.10
2018-04-27T03:41:32.964Z,96.10
2018-04-27T03:44:00.814Z,96.10
2018-04-27T03:46:29.715Z,96.10
2018-04-27T03:48:57.613Z,96.10
2018-04-27T03:51:25.432Z,96.00
2018-04-27T03:53:53.977Z,96.20
2018-04-27T03:56:22.935Z,96.20
2018-04-27T03:58:50.833Z,96.20
2018-04-27T04:01:30.773Z,96.20
2018-04-27T04:04:10.433Z,96.40
2018-04-27T04:06:38.594Z,96.60
2018-04-27T04:09:06.411Z,96.60
2018-04-27T04:11:34.493Z,96.60
2018-04-27T04:14:02.494Z,96.60
2018-04-27T04:16:30.334Z,96.50
2018-04-27T04:18:59.193Z,96.40
2018-04-27T04:21:27.813Z,96.30
2018-04-27T04:23:56.033Z,96.30
2018-04-27T04:26:24.153Z,96.30
2018-04-27T04:28:53.534Z,96.40
2018-04-27T04:31:22.133Z,96.20
2018-04-27T04:33:50.295Z,96.30
2018-04-27T04:36:18.092Z,96.40
2018-04-27T04:38:45.892Z,96.40
2018-04-27T04:41:13.694Z,96.50
2018-04-27T04:43:42.192Z,96.50
2018-04-27T04:46:09.993Z,96.30
2018-04-27T04:48:38.613Z,96.30
2018-04-27T04:51:06.793Z,96.20
2018-04-27T04:56:07.272Z,96.20
2018-04-27T04:58:35.093Z,96.20
2018-04-27T05:01:03.075Z,96.10
2018-04-27T05:03:31.115Z,96.10
2018-04-27T05:05:59.295Z,95.90
2018-04-27T05:08:29.335Z,95.90
2018-04-27T05:10:57.815Z,95.90
2018-04-27T05:13:25.695Z,96.00
2018-04-27T05:15:53.617Z,96.00
2018-04-27T05:21:17.153Z,96.10
2018-04-27T05:23:45.155Z,96.00
2018-04-27T05:26:13.118Z,95.90
2018-04-27T05:28:41.075Z,96.10
2018-04-27T05:31:21.136Z,96.20
2018-04-27T05:33:49.054Z,95.80
2018-04-27T05:36:16.954Z,95.80
2018-04-27T05:38:46.675Z,95.40
2018-04-27T05:41:14.895Z,95.60
2018-04-27T05:43:43.854Z,95.60
2018-04-27T05:46:12.676Z,95.50
2018-04-27T05:48:40.854Z,95.70
2018-04-27T05:51:09.098Z,95.60
2018-04-27T05:53:37.054Z,95.50
2018-04-27T05:56:05.334Z,95.30
2018-04-27T05:58:33.173Z,95.60
2018-04-27T06:01:01.195Z,95.70
2018-04-27T06:03:40.799Z,95.70
2018-04-27T06:06:08.852Z,95.10
2018-04-27T06:08:37.415Z,95.00
2018-04-27T06:11:05.138Z,94.80
2018-04-27T06:13:33.013Z,94.90
2018-04-27T06:16:00.793Z,95.00
2018-04-27T06:18:28.693Z,95.10
2018-04-27T06:20:56.636Z,94.80
2018-04-27T06:23:24.492Z,94.80
2018-04-27T06:25:52.319Z,94.60
2018-04-27T06:28:20.644Z,94.60
2018-04-27T06:30:48.600Z,94.40
2018-04-27T06:33:16.563Z,94.30
2018-04-27T06:35:45.299Z,94.60
2018-04-27T06:38:13.420Z,94.50
2018-04-27T06:40:41.439Z,94.60
2018-04-27T06:43:09.332Z,94.50
2018-04-27T06:45:37.211Z,93.80
2018-04-27T06:48:05.072Z,94.30
2018-04-27T06:50:32.892Z,94.10
2018-04-27T06:53:00.692Z,94.30
2018-04-27T06:55:29.371Z,94.70
2018-04-27T06:57:57.392Z,94.90
2018-04-27T07:00:25.720Z,94.50
2018-04-27T07:02:53.712Z,93.80
2018-04-27T07:05:22.402Z,93.80
2018-04-27T07:07:50.292Z,93.80
2018-04-27T07:10:18.256Z,94.20
2018-04-27T07:12:46.195Z,94.20
2018-04-27T07:15:13.973Z,94.20
2018-04-27T07:17:41.895Z,93.90
2018-04-27T07:20:09.754Z,93.40
2018-04-27T07:22:37.575Z,93.50
2018-04-27T07:25:05.395Z,93.20
2018-04-27T07:27:33.122Z,92.80
2018-04-27T07:30:00.915Z,93.10
2018-04-27T07:32:29.955Z,93.40
2018-04-27T07:34:58.500Z,93.60
2018-04-27T07:37:27.153Z,93.30
2018-04-27T07:39:55.735Z,93.30
2018-04-27T07:42:23.572Z,93.50
2018-04-27T07:44:51.413Z,94.10
2018-04-27T07:47:19.313Z,93.70
2018-04-27T07:49:48.634Z,93.40
2018-04-27T07:52:16.553Z,94.10
2018-04-27T07:54:44.632Z,94.30
2018-04-27T07:57:12.475Z,94.30
2018-04-27T07:59:40.694Z,93.70
2018-04-27T08:02:08.847Z,93.20
2018-04-27T08:04:36.753Z,93.20
2018-04-27T08:07:04.734Z,93.50
2018-04-27T08:09:32.614Z,93.60
2018-04-27T08:12:00.454Z,93.70
2018-04-27T08:14:28.347Z,93.30
2018-04-27T08:16:56.320Z,92.80
2018-04-27T08:19:24.272Z,92.60
2018-04-27T08:21:52.152Z,91.60
2018-04-27T08:24:20.112Z,91.60
2018-04-27T08:26:47.991Z,91.70
2018-04-27T08:29:17.414Z,91.00
2018-04-27T08:31:45.274Z,90.60
2018-04-27T08:34:13.215Z,90.60
2018-04-27T08:36:41.115Z,91.60
2018-04-27T08:39:08.958Z,91.30
2018-04-27T08:41:36.934Z,91.10
2018-04-27T08:44:04.814Z,91.30
2018-04-27T08:46:32.855Z,88.80
2018-04-27T08:49:00.795Z,86.60
2018-04-27T08:51:28.656Z,87.40
2018-04-27T08:53:56.555Z,87.90
2018-04-27T08:56:24.455Z,86.30
2018-04-27T08:58:52.352Z,84.90
2018-04-27T09:01:20.355Z,82.70
2018-04-27T09:03:48.175Z,78.10
2018-04-27T09:06:15.902Z,80.80
2018-04-27T09:08:43.737Z,76.90
2018-04-27T09:11:11.576Z,76.40
2018-04-27T09:13:39.816Z,78.50
2018-04-27T09:16:07.677Z,74.30
2018-04-27T09:18:35.536Z,74.20
2018-04-27T09:21:03.437Z,72.50
2018-04-27T09:23:31.316Z,69.30
2018-04-27T09:25:59.182Z,69.70
2018-04-27T09:28:28.088Z,63.00
2018-04-27T09:30:55.820Z,62.90
2018-04-27T09:33:23.532Z,66.80
2018-04-27T09:35:51.361Z,67.40
2018-04-27T09:38:19.275Z,59.60
2018-04-27T09:40:46.996Z,60.10
2018-04-27T09:43:14.841Z,60.80
2018-04-27T09:45:42.818Z,59.30
2018-04-27T09:48:10.683Z,55.50
2018-04-27T09:50:38.601Z,59.80
2018-04-27T09:53:06.555Z,58.50
2018-04-27T09:55:34.375Z,56.50
2018-04-27T09:58:02.160Z,57.20
2018-04-27T10:00:29.961Z,58.90
2018-04-27T10:02:57.857Z,54.20
2018-04-27T10:05:25.695Z,55.10
2018-04-27T10:07:53.595Z,58.50
2018-04-27T10:12:54.155Z,55.30
2018-04-27T10:15:21.998Z,54.70
2018-04-27T10:17:50.635Z,53.10
2018-04-27T10:20:18.456Z,53.20
2018-04-27T10:22:46.336Z,56.20
2018-04-27T10:25:14.196Z,55.50
2018-04-27T10:27:42.076Z,51.80
2018-04-27T10:30:09.878Z,52.40
2018-04-27T10:32:37.657Z,52.70
2018-04-27T10:35:05.523Z,53.50
2018-04-27T10:37:33.395Z,53.60
2018-04-27T10:40:01.215Z,56.80
2018-04-27T10:42:29.175Z,54.50
2018-04-27T10:44:57.234Z,57.00
2018-04-27T10:47:25.853Z,56.20
2018-04-27T10:49:53.892Z,56.30
2018-04-27T10:52:21.712Z,55.90
2018-04-27T10:54:49.592Z,58.40
2018-04-27T10:57:17.492Z,55.60
2018-04-27T10:59:45.313Z,53.50
2018-04-27T11:02:13.337Z,50.90
2018-04-27T11:04:41.239Z,53.10
2018-04-27T11:07:09.021Z,54.60
2018-04-27T11:09:36.835Z,54.40
2018-04-27T11:12:04.758Z,55.00
2018-04-27T11:14:32.717Z,57.90
2018-04-27T11:17:00.547Z,52.30
2018-04-27T11:19:28.465Z,55.50
2018-04-27T11:21:56.476Z,58.50
2018-04-27T11:24:25.337Z,53.90
2018-04-27T11:26:54.117Z,54.40
2018-04-27T11:29:21.918Z,54.40
2018-04-27T11:31:49.758Z,53.60
2018-04-27T11:34:17.679Z,54.00
2018-04-27T11:36:45.643Z,56.20
2018-04-27T11:39:13.501Z,55.40
2018-04-27T11:41:41.521Z,56.20
2018-04-27T11:44:09.481Z,55.50
2018-04-27T11:46:37.341Z,57.80
2018-04-27T11:49:05.508Z,55.40
2018-04-27T11:51:33.616Z,56.10
2018-04-27T11:54:01.425Z,55.10
2018-04-27T11:56:29.443Z,55.30
2018-04-27T11:58:58.198Z,54.90
2018-04-27T12:01:26.060Z,55.50
2018-04-27T12:03:54.059Z,57.30
2018-04-27T12:06:21.976Z,57.00
2018-04-27T12:08:49.765Z,60.30
2018-04-27T12:11:17.778Z,57.70
2018-04-27T12:13:45.624Z,57.80
2018-04-27T12:16:13.496Z,56.20
2018-04-27T12:18:42.262Z,55.70
2018-04-27T12:21:10.077Z,55.80
2018-04-27T12:23:37.917Z,56.10
2018-04-27T12:26:06.256Z,57.70
2018-04-27T12:28:34.196Z,58.60
2018-04-27T12:31:02.077Z,58.30
2018-04-27T12:33:29.899Z,57.80
2018-04-27T12:35:57.714Z,56.70
2018-04-27T12:38:25.714Z,58.90
2018-04-27T12:40:53.630Z,57.80
2018-04-27T12:43:22.464Z,57.40
2018-04-27T12:45:50.276Z,57.30
2018-04-27T12:48:18.275Z,59.40
2018-04-27T12:50:46.218Z,57.50
2018-04-27T12:53:14.175Z,59.00
2018-04-27T12:55:42.078Z,57.80
2018-04-27T12:58:10.820Z,58.10
2018-04-27T13:00:38.595Z,57.60
2018-04-27T13:03:06.906Z,56.90
2018-04-27T13:05:34.884Z,57.70
2018-04-27T13:08:02.813Z,58.30
2018-04-27T13:10:30.818Z,59.50
2018-04-27T13:12:58.898Z,59.30
2018-04-27T13:15:26.978Z,58.80
2018-04-27T13:17:55.058Z,59.10
2018-04-27T13:20:22.864Z,58.90
2018-04-27T13:22:50.819Z,57.80
2018-04-27T13:25:18.818Z,59.90
2018-04-27T13:27:46.640Z,58.10
2018-04-27T13:30:14.840Z,58.10
2018-04-27T13:32:42.818Z,58.00
2018-04-27T13:35:10.632Z,58.90
2018-04-27T13:37:38.560Z,58.50
2018-04-27T13:40:06.618Z,58.10
2018-04-27T13:42:34.497Z,56.70
2018-04-27T13:45:02.456Z,58.00
2018-04-27T13:47:30.460Z,58.90
2018-04-27T13:49:58.317Z,58.00
2018-04-27T13:52:26.158Z,58.60
2018-04-27T13:54:54.879Z,60.20
2018-04-27T13:57:22.939Z,60.20
2018-04-27T13:59:52.299Z,58.10
2018-04-27T14:02:20.383Z,56.50
2018-04-27T14:04:48.219Z,57.00
2018-04-27T14:07:16.260Z,58.60
2018-04-27T14:09:44.531Z,58.10
2018-04-27T14:12:12.505Z,57.80
2018-04-27T14:14:40.462Z,57.20
2018-04-27T14:17:08.663Z,57.70
2018-04-27T14:19:36.690Z,57.40
2018-04-27T14:22:04.662Z,58.60
2018-04-27T14:24:32.542Z,58.50
2018-04-27T14:27:00.557Z,60.60
2018-04-27T14:29:28.496Z,58.90
2018-04-27T14:32:05.243Z,58.70
2018-04-27T14:37:15.962Z,58.90
2018-04-27T14:39:49.883Z,58.90
2018-04-27T14:42:24.766Z,57.10
2018-04-27T14:44:59.282Z,58.10
2018-04-27T14:47:33.243Z,59.20
2018-04-27T14:50:03.157Z,58.20
2018-04-27T14:52:34.708Z,57.70
2018-04-27T14:55:02.509Z,58.50
2018-04-27T14:57:30.536Z,59.40
2018-04-27T14:59:58.477Z,59.80
2018-04-27T15:02:26.454Z,58.30
2018-04-27T15:04:54.253Z,58.60
2018-04-27T15:07:22.254Z,59.70
2018-04-27T15:09:50.117Z,58.50
2018-04-27T15:12:18.074Z,59.80
2018-04-27T15:14:46.794Z,59.60
2018-04-27T15:17:14.794Z,59.60
2018-04-27T15:19:42.614Z,60.70
2018-04-27T15:22:11.321Z,59.80
2018-04-27T15:24:39.155Z,59.80
2018-04-27T15:27:07.040Z,60.50
2018-04-27T15:29:35.034Z,60.90
2018-04-27T15:34:34.954Z,61.40
2018-04-27T15:37:02.895Z,61.80
2018-04-27T15:39:30.774Z,61.40
2018-04-27T15:41:58.755Z,60.60
2018-04-27T15:44:26.634Z,62.40
2018-04-27T15:46:54.634Z,60.80
2018-04-27T15:49:22.696Z,60.50
2018-04-27T15:51:50.694Z,61.40
2018-04-27T15:54:18.614Z,63.60
2018-04-27T15:56:46.554Z,63.10
2018-04-27T15:59:14.594Z,63.00
2018-04-27T16:01:42.606Z,61.80
2018-04-27T16:04:11.439Z,64.20
2018-04-27T16:06:39.317Z,64.10
2018-04-27T16:09:07.404Z,63.90
2018-04-27T16:11:35.358Z,63.60
2018-04-27T16:14:03.217Z,63.60
2018-04-27T16:16:31.104Z,63.70
2018-04-27T16:19:00.716Z,64.30
2018-04-27T16:21:30.343Z,65.20
2018-04-27T16:23:58.316Z,65.40
2018-04-27T16:26:28.036Z,65.70
2018-04-27T16:28:55.856Z,66.70
2018-04-27T16:31:23.642Z,65.40
2018-04-27T16:33:51.621Z,65.50
2018-04-27T16:36:19.499Z,66.00
2018-04-27T16:38:47.419Z,65.30
2018-04-27T16:41:16.236Z,65.80
2018-04-27T16:43:44.176Z,65.90
2018-04-27T16:46:12.232Z,67.50
2018-04-27T16:48:40.077Z,67.00
2018-04-27T16:51:07.816Z,68.20
2018-04-27T16:53:35.617Z,67.90
2018-04-27T16:56:03.596Z,68.40
2018-04-27T16:58:31.496Z,69.50
2018-04-27T17:00:59.231Z,69.50
2018-04-27T17:03:27.048Z,69.50
2018-04-27T17:05:54.778Z,68.60
2018-04-27T17:08:22.514Z,68.50
2018-04-27T17:10:50.612Z,68.30
2018-04-27T17:13:18.422Z,68.70
2018-04-27T17:15:46.937Z,69.50
2018-04-27T17:18:14.826Z,69.50
2018-04-27T17:20:42.557Z,69.80
2018-04-27T17:23:10.276Z,69.60
2018-04-27T17:25:38.878Z,70.40
2018-04-27T17:30:36.534Z,70.70
2018-04-27T17:33:04.417Z,70.70
2018-04-27T17:35:32.445Z,71.40
2018-04-27T17:38:00.220Z,72.70
2018-04-27T17:40:28.060Z,73.40
2018-04-27T17:42:55.824Z,73.60
2018-04-27T17:45:23.617Z,74.00
2018-04-27T17:47:51.696Z,73.30
2018-04-27T17:50:19.721Z,73.30
2018-04-27T17:52:47.836Z,73.60
2018-04-27T17:55:15.954Z,73.50
2018-04-27T17:57:44.076Z,73.40
2018-04-27T18:00:12.073Z,73.80
2018-04-27T18:02:40.228Z,73.70
2018-04-27T18:05:08.605Z,74.00
2018-04-27T18:07:36.611Z,73.80
2018-04-27T18:10:04.546Z,73.50
2018-04-27T18:12:32.384Z,73.80
2018-04-27T18:15:00.386Z,73.80
2018-04-27T18:17:29.202Z,74.20
2018-04-27T18:19:57.015Z,74.20
2018-04-27T18:22:26.614Z,74.30
2018-04-27T18:24:57.499Z,72.80
2018-04-27T18:27:27.162Z,69.50
2018-04-27T18:29:55.087Z,66.30
2018-04-27T18:32:23.660Z,70.80
2018-04-27T18:34:51.578Z,70.80
2018-04-27T18:37:19.418Z,74.20
2018-04-27T18:39:47.517Z,75.40
2018-04-27T18:42:15.419Z,73.60
2018-04-27T18:44:43.276Z,74.70
2018-04-27T18:47:11.241Z,76.30
2018-04-27T18:49:39.977Z,82.50
2018-04-27T18:52:07.936Z,81.80
2018-04-27T18:54:35.876Z,84.90
2018-04-27T18:57:04.176Z,85.10
2018-04-27T18:59:32.125Z,84.90
2018-04-27T19:02:00.124Z,84.80
2018-04-27T19:04:28.025Z,85.20
2018-04-27T19:06:56.803Z,84.60
2018-04-27T19:09:25.008Z,84.70
2018-04-27T19:11:52.864Z,83.40
2018-04-27T19:14:20.991Z,82.70
2018-04-27T19:16:49.423Z,82.40
2018-04-27T19:19:17.321Z,82.10
2018-04-27T19:21:45.540Z,82.30
2018-04-27T19:24:13.560Z,82.50
2018-04-27T19:26:41.462Z,82.80
2018-04-27T19:29:09.460Z,82.50
2018-04-27T19:31:37.523Z,82.90
2018-04-27T19:34:05.347Z,83.00
2018-04-27T19:36:33.339Z,82.10
2018-04-27T19:39:01.338Z,82.10
2018-04-27T19:41:29.198Z,82.20
2018-04-27T19:43:57.175Z,82.10
2018-04-27T19:46:25.349Z,81.90
2018-04-27T19:48:53.377Z,82.20
2018-04-27T19:51:21.275Z,81.80
2018-04-27T19:53:49.971Z,82.50
2018-04-27T19:56:18.880Z,81.90
2018-04-27T19:58:46.863Z,81.80
2018-04-27T20:01:14.818Z,82.50
2018-04-27T20:03:42.776Z,82.60
2018-04-27T20:06:11.026Z,83.50
2018-04-27T20:08:40.028Z,84.10
2018-04-27T20:11:07.974Z,84.10
2018-04-27T20:16:09.164Z,84.10
2018-04-27T20:18:37.058Z,84.60
2018-04-27T20:21:04.961Z,84.50
2018-04-27T20:23:36.043Z,85.20
2018-04-27T20:26:06.039Z,79.20
2018-04-27T20:28:38.879Z,79.10
2018-04-27T20:31:07.099Z,79.50
2018-04-27T20:33:43.807Z,77.00
2018-04-27T20:36:18.608Z,76.90
2018-04-27T20:38:46.618Z,83.30
2018-04-27T20:41:19.594Z,80.40
2018-04-27T20:43:48.616Z,80.40
2018-04-27T20:46:21.657Z,81.50
2018-04-27T20:48:50.630Z,81.50
2018-04-27T20:51:20.139Z,87.60
2018-04-27T20:53:51.035Z,87.80
2018-04-27T20:56:20.094Z,87.80
2018-04-27T20:58:48.101Z,88.10
2018-04-27T21:01:16.454Z,81.10
2018-04-27T21:03:44.588Z,79.50
2018-04-27T21:06:12.475Z,81.50
2018-04-27T21:08:40.574Z,80.70
2018-04-27T21:11:08.501Z,82.20
2018-04-27T21:13:36.418Z,81.40
2018-04-27T21:16:05.201Z,87.60
2018-04-27T21:18:33.176Z,87.60
2018-04-27T21:21:01.096Z,82.80
2018-04-27T21:23:29.137Z,83.10
2018-04-27T21:25:56.936Z,83.40
2018-04-27T21:28:25.816Z,84.30
2018-04-27T21:30:56.018Z,87.70
2018-04-27T21:33:27.517Z,89.20
2018-04-27T21:35:58.698Z,89.50
2018-04-27T21:38:32.323Z,90.00
2018-04-27T21:41:23.966Z,90.90
2018-04-27T21:43:52.797Z,91.10
2018-04-27T21:46:20.946Z,91.20
2018-04-27T21:48:49.257Z,91.40
2018-04-27T21:51:17.137Z,91.40
2018-04-27T21:53:45.017Z,91.70
2018-04-27T21:56:13.237Z,91.30
2018-04-27T21:58:43.138Z,91.40
2018-04-27T22:01:11.038Z,91.40
2018-04-27T22:03:39.476Z,91.60
2018-04-27T22:06:07.856Z,91.50
2018-04-27T22:08:44.567Z,91.50
2018-04-27T22:11:23.357Z,91.80
2018-04-27T22:13:52.096Z,91.60
2018-04-27T22:19:21.996Z,91.50
2018-04-27T22:21:51.816Z,91.90
2018-04-27T22:24:22.936Z,92.00
2018-04-27T22:27:10.376Z,91.90
2018-04-27T22:29:57.977Z,91.90
2018-04-27T22:32:35.696Z,92.10
2018-04-27T22:35:06.476Z,92.00
2018-04-27T22:37:45.196Z,92.20
2018-04-27T22:40:20.018Z,92.20
2018-04-27T22:42:51.316Z,92.30
2018-04-27T22:45:23.979Z,92.40
2018-04-27T22:51:10.596Z,92.40
2018-04-27T22:53:46.156Z,92.70
2018-04-27T22:56:20.096Z,92.40
2018-04-27T22:58:48.056Z,92.30
2018-04-27T23:01:16.780Z,92.60
2018-04-27T23:03:44.720Z,92.60
2018-04-27T23:06:13.021Z,92.70
2018-04-27T23:08:42.850Z,92.50
2018-04-27T23:11:14.640Z,92.50
2018-04-27T23:13:43.580Z,92.50
2018-04-27T23:18:44.374Z,92.60
2018-04-27T23:21:20.060Z,92.70
2018-04-27T23:23:55.967Z,92.70
2018-04-27T23:26:32.446Z,92.40
2018-04-27T23:29:08.927Z,92.60
2018-04-27T23:31:45.411Z,92.80
2018-04-27T23:34:23.914Z,93.00
2018-04-27T23:37:00.925Z,92.90
2018-04-27T23:39:38.047Z,93.00
2018-04-27T23:42:13.568Z,93.00
2018-04-27T23:44:50.686Z,93.00
2018-04-27T23:47:26.847Z,93.00
2018-04-27T23:50:06.208Z,93.20
2018-04-27T23:52:42.047Z,93.30
2018-04-27T23:55:20.767Z,93.30
2018-04-27T23:57:57.890Z,93.00
